.
WxDataArchive / Data Records for 2013-01-21
2013-01-20 January 2013 2013-01-22

Data Records for Monday, 21 January 2013

Time	Temp	Chill	HIndex	Humid	Dewpt	 Wind 	HiWind	WindDir	Rain 	Barom 
-----	----	-----	------	-----	-----	------	------	-------	-----	----- 
00:00	18.1	18.1	18.1	62	7.3	0	1	292	0.00	30.203 
00:05	18.0	18.0	18.0	62	7.2	0	0	---	0.00	30.203 
00:10	18.0	18.0	18.0	62	7.2	0	1	292	0.00	30.203 
00:15	17.8	17.8	17.8	62	7.0	0	0	---	0.00	30.202 
00:20	18.0	18.0	18.0	62	7.2	0	1	292	0.00	30.202 
00:25	18.0	18.0	18.0	62	7.2	0	0	---	0.00	30.202 
00:30	18.0	18.0	18.0	62	7.2	0	0	---	0.00	30.190 
00:35	18.1	18.1	18.1	62	7.3	0	0	---	0.00	30.190 
00:40	18.1	18.1	18.1	62	7.3	0	0	---	0.00	30.190 
00:45	18.3	18.3	18.3	62	7.5	0	0	---	0.00	30.179 
00:50	18.3	18.3	18.3	62	7.5	0	1	292	0.00	30.179 
00:55	18.3	18.3	18.3	62	7.5	0	1	292	0.00	30.179 
01:00	18.3	18.3	18.3	61	7.1	0	1	292	0.00	30.175 
01:05	18.4	18.4	18.4	61	7.2	0	1	292	0.00	30.175 
01:10	18.4	18.4	18.4	61	7.2	0	2	292	0.00	30.175 
01:15	18.6	18.6	18.6	60	7.1	0	2	292	0.00	30.166 
01:20	18.6	18.6	18.6	60	7.1	0	1	292	0.00	30.166 
01:25	18.6	18.6	18.6	60	7.1	0	1	292	0.00	30.166 
01:30	18.6	18.6	18.6	59	6.7	0	2	292	0.00	30.160 
01:35	18.6	18.6	18.6	58	6.3	0	3	292	0.00	30.160 
01:40	18.8	18.8	18.8	58	6.5	0	2	292	0.00	30.160 
01:45	18.8	18.8	18.8	58	6.5	0	2	292	0.00	30.159 
01:50	18.8	18.8	18.8	58	6.5	0	2	292	0.00	30.159 
01:55	18.8	18.8	18.8	58	6.5	1	3	248	0.00	30.159 
02:00	18.8	18.8	18.8	58	6.5	0	1	248	0.00	30.159 
02:05	18.8	18.8	18.8	58	6.5	0	2	248	0.00	30.159 
02:10	18.8	18.8	18.8	58	6.5	0	2	248	0.00	30.159 
02:15	18.8	18.8	18.8	58	6.5	1	2	248	0.00	30.158 
02:20	18.9	18.9	18.9	58	6.6	1	5	248	0.00	30.158 
02:25	18.9	18.9	18.9	58	6.6	1	4	248	0.00	30.158 
02:30	18.9	18.9	18.9	59	7.0	0	3	248	0.00	30.157 
02:35	18.8	18.8	18.8	59	6.9	1	3	248	0.00	30.157 
02:40	18.8	18.8	18.8	59	6.9	1	3	248	0.00	30.157 
02:45	18.8	18.8	18.8	59	6.9	1	4	248	0.00	30.156 
02:50	18.8	18.8	18.8	59	6.9	1	4	248	0.00	30.156 
02:55	18.8	18.8	18.8	59	6.9	0	2	248	0.00	30.156 
03:00	18.6	18.6	18.6	59	6.7	1	4	248	0.00	30.152 
03:05	18.6	18.6	18.6	59	6.7	0	3	248	0.00	30.152 
03:10	18.6	18.6	18.6	59	6.7	1	3	248	0.00	30.152 
03:15	18.4	18.4	18.4	59	6.5	1	4	248	0.00	30.152 
03:20	18.4	18.4	18.4	58	6.1	1	3	248	0.00	30.152 
03:25	18.3	18.3	18.3	58	6.0	1	3	248	0.00	30.152 
03:30	18.3	18.3	18.3	58	6.0	1	3	248	0.00	30.149 
03:35	18.1	18.1	18.1	57	5.5	1	4	248	0.00	30.149 
03:40	18.0	18.0	18.0	56	5.0	1	3	248	0.00	30.149 
03:45	18.0	18.0	18.0	55	4.6	1	4	248	0.00	30.140 
03:50	18.0	18.0	18.0	54	4.2	2	4	248	0.00	30.140 
03:55	17.8	17.8	17.8	54	4.0	2	3	248	0.00	30.140 
04:00	17.8	17.8	17.8	54	4.0	2	4	248	0.00	30.139 
04:05	17.8	17.8	17.8	54	4.0	1	2	248	0.00	30.139 
04:10	17.8	17.8	17.8	55	4.4	1	3	248	0.00	30.139 
04:15	17.8	17.8	17.8	55	4.4	1	2	248	0.00	30.136 
04:20	17.8	17.8	17.8	56	4.8	1	4	248	0.00	30.136 
04:25	17.8	17.8	17.8	57	5.2	0	3	248	0.00	30.136 
04:30	17.8	17.8	17.8	57	5.2	0	2	248	0.00	30.128 
04:35	17.7	17.7	17.7	56	4.7	2	5	270	0.00	30.128 
04:40	17.7	17.7	17.7	56	4.7	1	3	270	0.00	30.128 
04:45	17.5	17.5	17.5	55	4.1	2	4	270	0.00	30.126 
04:50	17.3	17.3	17.3	55	3.9	1	4	270	0.00	30.126 
04:55	17.3	17.3	17.3	55	3.9	1	4	270	0.00	30.126 
05:00	17.3	17.3	17.3	56	4.3	1	3	248	0.00	30.123 
05:05	17.2	17.2	17.2	55	3.8	2	4	248	0.00	30.123 
05:10	17.2	17.2	17.2	55	3.8	2	4	270	0.00	30.123 
05:15	17.2	17.2	17.2	55	3.8	1	4	248	0.00	30.116 
05:20	17.2	17.2	17.2	54	3.4	1	4	270	0.00	30.116 
05:25	17.0	17.0	17.0	55	3.7	1	3	248	0.00	30.116 
05:30	17.0	17.0	17.0	54	3.3	2	4	270	0.00	30.115 
05:35	17.0	17.0	17.0	54	3.3	2	5	270	0.00	30.115 
05:40	16.9	16.9	16.9	55	3.6	1	5	270	0.00	30.115 
05:45	16.9	16.9	16.9	55	3.6	2	4	248	0.00	30.115 
05:50	16.9	16.9	16.9	56	4.0	1	4	248	0.00	30.115 
05:55	16.9	16.9	16.9	55	3.6	2	4	248	0.00	30.115 
06:00	16.9	16.9	16.9	54	3.2	1	4	248	0.00	30.114 
06:05	16.7	16.7	16.7	54	3.0	2	5	248	0.00	30.114 
06:10	16.7	16.7	16.7	53	2.6	2	4	292	0.00	30.114 
06:15	16.7	16.7	16.7	54	3.0	1	4	270	0.00	30.112 
06:20	16.7	16.7	16.7	54	3.0	0	2	292	0.00	30.112 
06:25	16.5	16.5	16.5	54	2.8	1	3	270	0.00	30.112 
06:30	16.5	16.5	16.5	55	3.2	2	5	248	0.00	30.114 
06:35	16.5	16.5	16.5	55	3.2	1	3	248	0.00	30.114 
06:40	16.5	16.5	16.5	54	2.8	1	3	292	0.00	30.114 
06:45	16.5	16.5	16.5	54	2.8	1	3	248	0.00	30.116 
06:50	16.5	16.5	16.5	54	2.8	1	4	270	0.00	30.116 
06:55	16.5	16.5	16.5	53	2.4	2	4	270	0.00	30.116 
07:00	16.5	16.5	16.5	54	2.8	1	4	270	0.00	30.117 
07:05	16.5	16.5	16.5	55	3.2	1	4	338	0.00	30.117 
07:10	16.5	16.5	16.5	55	3.2	1	5	270	0.00	30.117 
07:15	16.5	16.5	16.5	57	4.0	1	5	248	0.00	30.114 
07:20	16.5	16.5	16.5	57	4.0	1	3	248	0.00	30.114 
07:25	16.5	16.5	16.5	58	4.3	2	5	270	0.00	30.114 
07:30	16.5	16.5	16.5	57	4.0	2	9	248	0.00	30.115 
07:35	16.2	16.2	16.2	56	3.3	3	8	248	0.00	30.115 
07:40	16.1	16.1	16.1	57	3.6	3	7	248	0.00	30.115 
07:45	16.1	16.1	16.1	58	4.0	2	7	225	0.00	30.116 
07:50	16.1	16.1	16.1	58	4.0	1	4	248	0.00	30.116 
07:55	15.9	15.9	15.9	58	3.8	1	4	248	0.00	30.116 
08:00	15.9	15.9	15.9	58	3.8	3	6	248	0.00	30.115 
08:05	15.9	15.9	15.9	58	3.8	3	6	270	0.00	30.115 
08:10	15.9	15.9	15.9	57	3.4	2	6	270	0.00	30.115 
08:15	15.9	15.9	15.9	58	3.8	1	3	270	0.00	30.112 
08:20	15.7	15.7	15.7	58	3.6	2	6	248	0.00	30.112 
08:25	15.7	15.7	15.7	58	3.6	2	6	248	0.00	30.112 
08:30	15.7	15.7	15.7	58	3.6	2	5	248	0.00	30.109 
08:35	15.6	15.6	15.6	57	3.1	2	4	270	0.00	30.109 
08:40	15.6	15.6	15.6	56	2.7	3	7	248	0.00	30.109 
08:45	15.6	15.6	15.6	57	3.1	1	7	248	0.00	30.104 
08:50	15.6	15.6	15.6	57	3.1	2	5	248	0.00	30.104 
08:55	15.6	15.6	15.6	59	3.9	3	9	248	0.00	30.104 
09:00	15.6	15.6	15.6	60	4.2	2	4	270	0.00	30.108 
09:05	15.7	15.7	15.7	61	4.7	2	6	248	0.00	30.108 
09:10	15.6	15.6	15.6	63	5.3	3	10	248	0.00	30.108 
09:15	15.4	15.4	15.4	64	5.4	2	5	248	0.00	30.119 
09:20	15.2	15.2	15.2	64	5.2	2	7	270	0.00	30.119 
09:25	15.2	15.2	15.2	62	4.6	3	8	270	0.00	30.119 
09:30	15.1	15.1	15.1	63	4.8	3	5	270	0.00	30.119 
09:35	15.1	15.1	15.1	63	4.8	2	5	248	0.00	30.119 
09:40	15.1	15.1	15.1	63	4.8	2	6	270	0.00	30.119 
09:45	15.1	15.1	15.1	63	4.8	3	9	248	0.00	30.119 
09:50	14.9	14.9	14.9	62	4.3	3	7	248	0.00	30.119 
09:55	14.8	14.8	14.8	64	4.9	3	6	248	0.00	30.119 
10:00	14.4	7.7	14.4	62	3.8	4	7	270	0.00	30.132 
10:05	14.3	7.6	14.3	59	2.6	4	6	270	0.00	30.132 
10:10	14.4	7.7	14.4	57	2.0	4	9	270	0.00	30.132 
10:15	14.6	8.0	14.6	56	1.8	4	9	270	0.00	30.125 
10:20	14.6	8.0	14.6	54	1.0	4	6	270	0.00	30.125 
10:25	14.8	8.2	14.8	58	2.7	4	6	270	0.00	30.125 
10:30	14.9	14.9	14.9	55	1.7	3	9	248	0.00	30.120 
10:35	15.4	15.4	15.4	56	2.5	3	6	270	0.00	30.120 
10:40	15.6	9.1	15.6	54	2.0	4	10	270	0.00	30.120 
10:45	15.6	9.1	15.6	53	1.6	4	7	270	0.00	30.117 
10:50	15.7	9.2	15.7	53	1.6	4	10	270	0.00	30.117 
10:55	15.4	8.9	15.4	53	1.4	4	10	270	0.00	30.117 
11:00	15.1	8.6	15.1	53	1.1	4	7	270	0.00	30.124 
11:05	14.9	14.9	14.9	54	1.3	3	7	270	0.00	30.124 
11:10	14.9	8.3	14.9	52	0.5	4	7	270	0.00	30.124 
11:15	15.2	8.7	15.2	51	0.4	4	10	270	0.00	30.125 
11:20	15.6	9.1	15.6	50	0.3	4	10	270	0.00	30.125 
11:25	16.1	16.1	16.1	50	0.8	3	5	248	0.00	30.125 
11:30	16.5	16.5	16.5	49	0.7	3	6	270	0.00	30.117 
11:35	16.2	9.8	16.2	46	-0.9	4	7	270	0.00	30.117 
11:40	15.6	9.1	15.6	47	-1.0	4	9	270	0.00	30.117 
11:45	15.6	9.1	15.6	48	-0.6	4	12	270	0.00	30.116 
11:50	15.6	9.1	15.6	46	-1.5	4	9	270	0.00	30.116 
11:55	15.9	15.9	15.9	46	-1.2	3	7	292	0.00	30.116 
12:00	16.4	10.1	16.4	43	-2.1	4	8	270	0.00	30.114 
12:05	16.7	16.7	16.7	42	-2.4	3	7	270	0.00	30.114 
12:10	17.3	11.1	17.3	41	-2.3	4	12	270	0.00	30.114 
12:15	18.0	18.0	18.0	40	-2.2	3	10	270	0.00	30.104 
12:20	17.5	11.3	17.5	39	-3.2	4	9	270	0.00	30.104 
12:25	16.9	16.9	16.9	41	-2.7	3	5	270	0.00	30.104 
12:30	16.7	16.7	16.7	41	-2.9	3	7	248	0.00	30.102 
12:35	16.7	9.1	16.7	43	-1.9	5	12	270	0.00	30.102 
12:40	17.0	10.7	17.0	45	-0.6	4	7	270	0.00	30.102 
12:45	17.0	10.7	17.0	49	1.2	4	10	248	0.00	30.100 
12:50	16.1	9.7	16.1	52	1.6	4	10	270	0.00	30.100 
12:55	16.4	10.1	16.4	48	0.2	4	7	270	0.00	30.100 
13:00	17.2	17.2	17.2	43	-1.4	3	6	270	0.00	30.087 
13:05	17.5	17.5	17.5	44	-0.7	3	7	270	0.00	30.087 
13:10	17.3	17.3	17.3	45	-0.4	3	6	270	0.00	30.087 
13:15	16.7	10.4	16.7	54	3.0	4	7	270	0.00	30.086 
13:20	16.1	16.1	16.1	60	4.7	2	5	270	0.00	30.086 
13:25	16.4	16.4	16.4	53	2.3	3	7	270	0.00	30.086 
13:30	16.7	10.4	16.7	49	0.9	4	7	270	0.00	30.082 
13:35	17.0	10.7	17.0	45	-0.6	4	10	270	0.00	30.082 
13:40	17.3	9.8	17.3	46	0.1	5	10	270	0.00	30.082 
13:45	17.0	17.0	17.0	46	-0.2	3	6	270	0.00	30.082 
13:50	16.7	16.7	16.7	46	-0.4	3	10	270	0.00	30.082 
13:55	16.7	16.7	16.7	45	-0.9	3	9	270	0.00	30.082 
14:00	16.7	16.7	16.7	47	0.0	2	5	270	0.00	30.083 
14:05	16.4	16.4	16.4	49	0.6	2	6	248	0.00	30.083 
14:10	16.1	16.1	16.1	53	2.0	3	6	270	0.00	30.083 
14:15	16.1	16.1	16.1	56	3.2	3	6	270	0.00	30.095 
14:20	15.9	15.9	15.9	62	5.2	3	7	270	0.00	30.095 
14:25	14.9	14.9	14.9	59	3.2	3	6	248	0.00	30.095 
14:30	14.9	14.9	14.9	58	2.8	3	6	248	0.00	30.098 
14:35	15.7	15.7	15.7	59	4.0	2	6	270	0.00	30.098 
14:40	15.1	8.6	15.1	64	5.1	4	10	270	0.00	30.098 
14:45	14.8	14.8	14.8	65	5.2	3	5	270	0.00	30.100 
14:50	15.2	8.7	15.2	63	4.9	4	9	270	0.00	30.100 
14:55	14.9	14.9	14.9	63	4.6	3	11	270	0.00	30.100 
15:00	14.9	14.9	14.9	65	5.3	2	4	270	0.00	30.104 
15:05	14.8	14.8	14.8	58	2.7	3	6	248	0.00	30.104 
15:10	14.9	8.3	14.9	56	2.1	4	6	270	0.00	30.104 
15:15	14.9	8.3	14.9	56	2.1	4	8	270	0.00	30.113 
15:20	14.4	14.4	14.4	53	0.4	3	10	270	0.00	30.113 
15:25	14.4	14.4	14.4	50	-0.8	3	7	248	0.00	30.113 
15:30	14.9	8.3	14.9	51	0.1	4	11	248	0.00	30.117 
15:35	15.4	8.9	15.4	52	1.0	4	8	270	0.00	30.117 
15:40	15.1	15.1	15.1	54	1.5	3	6	270	0.00	30.117 
15:45	14.6	14.6	14.6	57	2.2	3	5	270	0.00	30.122 
15:50	14.1	14.1	14.1	57	1.7	3	9	270	0.00	30.122 
15:55	14.3	14.3	14.3	55	1.1	3	6	270	0.00	30.122 
16:00	14.4	7.7	14.4	53	0.4	4	9	248	0.00	30.131 
16:05	14.4	14.4	14.4	51	-0.4	3	6	270	0.00	30.131 
16:10	14.3	14.3	14.3	49	-1.3	3	6	248	0.00	30.131 
16:15	14.1	7.4	14.1	47	-2.4	4	9	248	0.00	30.136 
16:20	14.0	7.3	14.0	49	-1.6	4	9	270	0.00	30.136 
16:25	13.8	13.8	13.8	48	-2.2	2	5	270	0.00	30.136 
16:30	13.6	6.8	13.6	45	-3.7	4	7	270	0.00	30.139 
16:35	13.5	13.5	13.5	45	-3.8	3	7	270	0.00	30.139 
16:40	13.3	13.3	13.3	52	-1.0	3	10	270	0.00	30.139 
16:45	12.6	12.6	12.6	61	1.7	3	7	270	0.00	30.149 
16:50	12.4	12.4	12.4	63	2.2	3	7	292	0.00	30.149 
16:55	12.1	12.1	12.1	64	2.3	3	9	270	0.00	30.149 
17:00	11.7	4.6	11.7	63	1.6	4	7	270	0.00	30.155 
17:05	11.6	11.6	11.6	61	0.8	2	5	270	0.00	30.155 
17:10	11.6	11.6	11.6	58	-0.3	3	8	270	0.00	30.155 
17:15	11.4	11.4	11.4	57	-0.8	3	5	315	0.00	30.163 
17:20	11.1	11.1	11.1	56	-1.5	3	7	270	0.00	30.163 
17:25	10.9	10.9	10.9	56	-1.7	3	5	270	0.00	30.163 
17:30	10.9	10.9	10.9	54	-2.4	3	6	270	0.00	30.162 
17:35	10.7	10.7	10.7	54	-2.6	2	7	270	0.00	30.162 
17:40	10.7	10.7	10.7	54	-2.6	2	5	270	0.00	30.162 
17:45	10.5	10.5	10.5	54	-2.8	2	5	270	0.00	30.167 
17:50	10.5	10.5	10.5	52	-3.6	3	6	270	0.00	30.167 
17:55	10.5	10.5	10.5	50	-4.4	3	7	270	0.00	30.167 
18:00	10.5	10.5	10.5	49	-4.8	2	4	270	0.00	30.170 
18:05	10.4	10.4	10.4	49	-4.9	3	10	248	0.00	30.170 
18:10	10.4	10.4	10.4	49	-4.9	3	6	270	0.00	30.170 
18:15	10.2	10.2	10.2	49	-5.1	3	6	270	0.00	30.176 
18:20	10.0	10.0	10.0	50	-4.9	2	5	270	0.00	30.176 
18:25	10.0	10.0	10.0	52	-4.1	2	5	248	0.00	30.176 
18:30	9.9	9.9	9.9	55	-3.0	3	9	248	0.00	30.179 
18:35	9.9	9.9	9.9	54	-3.4	3	5	270	0.00	30.179 
18:40	9.7	9.7	9.7	55	-3.2	2	5	248	0.00	30.179 
18:45	9.7	9.7	9.7	56	-2.8	2	6	248	0.00	30.183 
18:50	9.7	9.7	9.7	57	-2.4	3	7	248	0.00	30.183 
18:55	9.5	9.5	9.5	58	-2.3	2	4	248	0.00	30.183 
19:00	9.5	9.5	9.5	59	-1.9	2	6	248	0.00	30.182 
19:05	9.3	9.3	9.3	59	-2.1	2	4	248	0.00	30.182 
19:10	9.3	9.3	9.3	59	-2.1	2	6	248	0.00	30.182 
19:15	9.3	9.3	9.3	59	-2.1	2	6	248	0.00	30.187 
19:20	9.3	9.3	9.3	58	-2.4	2	4	248	0.00	30.187 
19:25	9.3	9.3	9.3	57	-2.8	3	9	248	0.00	30.187 
19:30	9.3	9.3	9.3	55	-3.6	2	6	270	0.00	30.190 
19:35	9.2	9.2	9.2	54	-4.0	3	6	270	0.00	30.190 
19:40	9.2	9.2	9.2	52	-4.8	2	7	270	0.00	30.190 
19:45	9.2	9.2	9.2	52	-4.8	2	5	248	0.00	30.188 
19:50	9.0	9.0	9.0	51	-5.4	3	10	248	0.00	30.188 
19:55	9.0	9.0	9.0	50	-5.8	3	6	248	0.00	30.188 
20:00	9.0	9.0	9.0	51	-5.4	1	4	248	0.00	30.188 
20:05	9.0	9.0	9.0	51	-5.4	2	4	248	0.00	30.188 
20:10	8.8	8.8	8.8	50	-6.0	2	5	248	0.00	30.188 
20:15	8.8	8.8	8.8	50	-6.0	2	5	270	0.00	30.189 
20:20	8.8	8.8	8.8	50	-6.0	3	7	248	0.00	30.189 
20:25	8.8	8.8	8.8	50	-6.0	3	6	248	0.00	30.189 
20:30	8.6	8.6	8.6	50	-6.2	2	6	248	0.00	30.196 
20:35	8.6	1.0	8.6	49	-6.6	4	11	270	0.00	30.196 
20:40	8.6	8.6	8.6	49	-6.6	3	6	248	0.00	30.196 
20:45	8.6	8.6	8.6	49	-6.6	3	6	248	0.00	30.195 
20:50	8.4	8.4	8.4	49	-6.8	2	4	248	0.00	30.195 
20:55	8.4	8.4	8.4	49	-6.8	2	5	248	0.00	30.195 
21:00	8.3	8.3	8.3	49	-6.9	2	6	248	0.00	30.192 
21:05	8.4	8.4	8.4	49	-6.8	2	7	225	0.00	30.192 
21:10	8.4	8.4	8.4	49	-6.8	2	6	248	0.00	30.192 
21:15	8.3	8.3	8.3	49	-6.9	2	7	248	0.00	30.204 
21:20	8.3	8.3	8.3	49	-6.9	3	11	270	0.00	30.204 
21:25	8.3	8.3	8.3	49	-6.9	2	5	270	0.00	30.204 
21:30	8.3	8.3	8.3	48	-7.3	3	7	270	0.00	30.207 
21:35	8.3	8.3	8.3	48	-7.3	3	4	270	0.00	30.207 
21:40	8.3	8.3	8.3	48	-7.3	3	6	270	0.00	30.207 
21:45	8.3	8.3	8.3	47	-7.7	3	5	248	0.00	30.207 
21:50	8.3	8.3	8.3	48	-7.3	2	5	248	0.00	30.207 
21:55	8.1	8.1	8.1	47	-7.9	2	6	270	0.00	30.207 
22:00	8.1	8.1	8.1	47	-7.9	3	8	248	0.00	30.212 
22:05	8.1	8.1	8.1	47	-7.9	2	5	248	0.00	30.212 
22:10	8.1	8.1	8.1	47	-7.9	3	7	248	0.00	30.212 
22:15	8.1	8.1	8.1	47	-7.9	3	6	270	0.00	30.218 
22:20	8.1	8.1	8.1	48	-7.5	3	7	248	0.00	30.218 
22:25	8.1	8.1	8.1	48	-7.5	2	6	248	0.00	30.218 
22:30	8.1	8.1	8.1	48	-7.5	3	6	270	0.00	30.216 
22:35	7.9	7.9	7.9	49	-7.2	2	5	248	0.00	30.216 
22:40	7.9	7.9	7.9	49	-7.2	3	7	270	0.00	30.216 
22:45	7.9	7.9	7.9	49	-7.2	3	10	248	0.00	30.220 
22:50	7.7	7.7	7.7	50	-7.0	2	5	248	0.00	30.220 
22:55	7.7	7.7	7.7	50	-7.0	2	9	248	0.00	30.220 
23:00	7.7	7.7	7.7	50	-7.0	2	5	248	0.00	30.223 
23:05	7.7	7.7	7.7	50	-7.0	2	5	248	0.00	30.223 
23:10	7.7	7.7	7.7	50	-7.0	2	5	248	0.00	30.223 
23:15	7.7	7.7	7.7	50	-7.0	3	6	270	0.00	30.225 
23:20	7.6	7.6	7.6	50	-7.1	3	6	248	0.00	30.225 
23:25	7.6	7.6	7.6	50	-7.1	2	5	248	0.00	30.225 
23:30	7.6	7.6	7.6	50	-7.1	3	6	248	0.00	30.226 
23:35	7.6	7.6	7.6	50	-7.1	3	6	248	0.00	30.226 
23:40	7.6	7.6	7.6	50	-7.1	3	10	270	0.00	30.226 
23:45	7.4	7.4	7.4	51	-6.9	3	7	248	0.00	30.227 
23:50	7.4	7.4	7.4	51	-6.9	2	5	248	0.00	30.227 
23:55	7.4	7.4	7.4	51	-6.9	2	5	248	0.00	30.227 

CoCoRaHS
IN-AL-39
A2 Web Hosting
Creative Commons License
GoDaddy
search engine by freefind advanced

loaded 2018-11-13 01:35:00 • last modified 2010-11-18 10:43:29
Privacy PolicyDisclaimer
• wx.awcolley.com is powered by PmWiki v.2002016 •
• all content (unless otherwise noted) © 2018 A W Colley